Time;durP1;ratioP1;P1;durP2;ratioP2;P2;SDS_P1;SDS_P2;PMS_P1;PMS_P2;Temp;Humidity;BMP_temperature;BMP_pressure;BME280_temperature;BME280_humidity;BME280_pressure;Samples;Min_cycle;Max_cycle;Signal;HPM_P1;HPM_P2
2022/05/21 00:01:50;;;;;;;9.38;2.30;;;;;;;22.64;39.94;99294.28;5011308;28;20034;-49
2022/05/21 00:04:16;;;;;;;3.22;1.98;;;;;;;22.68;40.20;99285.47;5011259;28;20117;-47
2022/05/21 00:06:42;;;;;;;5.00;2.03;;;;;;;22.64;40.25;99278.22;5012598;28;20026;-47
2022/05/21 00:09:09;;;;;;;6.63;2.55;;;;;;;22.62;40.51;99283.03;5012536;28;20034;-48
2022/05/21 00:11:34;;;;;;;10.02;2.10;;;;;;;22.61;40.46;99284.09;5011026;28;20030;-48
2022/05/21 00:14:00;;;;;;;9.05;2.45;;;;;;;22.61;40.42;99286.78;5012714;28;20029;-48
2022/05/21 00:16:26;;;;;;;5.53;2.38;;;;;;;22.63;40.35;99300.69;5010804;28;20053;-49
2022/05/21 00:18:52;;;;;;;11.48;2.55;;;;;;;22.63;40.26;99295.34;5012323;28;20030;-50
2022/05/21 00:21:18;;;;;;;6.57;2.38;;;;;;;22.64;40.20;99297.75;5012319;28;20084;-49
2022/05/21 00:23:44;;;;;;;3.65;1.70;;;;;;;22.67;40.42;99309.78;5011778;28;20061;-49
2022/05/21 00:26:14;;;;;;;9.73;2.75;;;;;;;22.65;39.99;99307.38;5012246;28;20018;-49
2022/05/21 00:28:42;;;;;;;14.57;2.20;;;;;;;22.67;40.02;99299.88;5012257;28;20022;-49
2022/05/21 00:31:11;;;;;;;8.60;2.20;;;;;;;22.70;40.09;99320.78;5012185;28;20030;-49
2022/05/21 00:33:37;;;;;;;8.65;2.10;;;;;;;22.67;40.13;99320.50;5012158;28;20100;-49
2022/05/21 00:36:05;;;;;;;7.53;2.42;;;;;;;22.57;40.21;99313.25;5012175;28;20022;-48
2022/05/21 00:38:30;;;;;;;6.43;2.30;;;;;;;22.48;40.34;99320.19;5012131;28;20514;-48
2022/05/21 00:40:57;;;;;;;8.75;2.40;;;;;;;22.37;40.91;99314.00;5012093;28;20022;-48
2022/05/21 00:43:48;;;;;;;4.38;2.30;;;;;;;22.36;40.99;99312.41;5012109;28;20018;-47
2022/05/21 00:46:23;;;;;;;4.32;2.00;;;;;;;22.36;40.96;99315.06;5011917;28;20080;-47
2022/05/21 00:48:56;;;;;;;;;;;;;;;22.31;40.91;99310.47;5012391;28;20029;-48
2022/05/21 00:51:27;;;;;;;8.52;3.20;;;;;;;22.23;41.25;99316.31;5010661;28;19910;-48
2022/05/21 00:53:58;;;;;;;6.40;2.35;;;;;;;22.25;41.25;99316.09;5011954;28;20324;-47
2022/05/21 00:56:25;;;;;;;6.63;2.20;;;;;;;22.25;41.42;99318.75;5012013;28;20030;-48
2022/05/21 01:01:42;;;;;;;9.13;3.15;;;;;;;22.14;41.29;99313.34;5012183;28;20076;-47
2022/05/21 01:04:08;;;;;;;14.30;3.10;;;;;;;22.05;41.47;99317.56;5011932;28;20040;-48
2022/05/21 01:06:36;;;;;;;6.55;2.50;;;;;;;21.96;41.83;99316.47;5011923;28;20022;-48
2022/05/21 01:09:03;;;;;;;9.15;2.53;;;;;;;21.99;41.81;99315.13;5012080;28;20104;-47
2022/05/21 01:11:29;;;;;;;6.65;2.65;;;;;;;22.04;41.87;99309.84;5012020;28;20376;-48
2022/05/21 01:13:55;;;;;;;9.55;2.55;;;;;;;22.08;41.86;99305.56;5011736;28;20052;-48
2022/05/21 01:16:21;;;;;;;13.15;3.08;;;;;;;22.07;41.64;99304.78;5014443;28;20060;-48
2022/05/21 01:18:46;;;;;;;9.30;4.20;;;;;;;22.04;42.02;99307.94;5031429;28;20025;-48
2022/05/21 01:21:12;;;;;;;10.00;3.10;;;;;;;22.01;41.80;99302.31;5031426;28;20022;-48
2022/05/21 01:23:38;;;;;;;6.32;2.15;;;;;;;21.97;41.91;99307.38;5031441;28;20033;-48
2022/05/21 01:26:19;;;;;;;13.00;3.50;;;;;;;21.97;41.99;99315.38;5031344;28;20044;-48
2022/05/21 01:28:45;;;;;;;5.82;2.15;;;;;;;21.98;41.95;99309.00;5013658;28;20411;-48
2022/05/21 01:31:11;;;;;;;5.22;3.08;;;;;;;22.07;41.79;99309.28;5031323;28;20026;-48
2022/05/21 01:33:41;;;;;;;6.25;2.42;;;;;;;22.13;41.78;99302.91;5031303;28;20025;-48
2022/05/21 01:36:08;;;;;;;6.85;2.40;;;;;;;22.13;41.56;99308.25;5035152;28;20495;-47
2022/05/21 01:38:36;;;;;;;5.22;3.33;;;;;;;22.04;41.92;99304.47;5035094;28;20095;-48
2022/05/21 01:41:03;;;;;;;6.55;2.13;;;;;;;21.88;42.07;99311.63;5035176;28;20387;-47
2022/05/21 01:46:15;;;;;;;5.10;2.20;;;;;;;21.58;42.73;99299.69;5034952;28;20098;-47
2022/05/21 01:48:41;;;;;;;5.65;2.35;;;;;;;21.49;42.87;99306.56;5034862;28;20023;-48
2022/05/21 01:51:08;;;;;;;8.55;2.28;;;;;;;21.44;43.40;99304.66;5034744;28;20029;-48
2022/05/21 01:53:35;;;;;;;6.40;2.38;;;;;;;21.35;43.42;99308.84;5034689;28;20017;-48
2022/05/21 01:56:02;;;;;;;8.38;2.30;;;;;;;21.29;43.57;99304.53;5034714;28;20033;-48
2022/05/21 01:58:29;;;;;;;11.38;2.80;;;;;;;21.15;44.08;99304.94;5034554;28;20030;-47
2022/05/21 02:00:58;;;;;;;8.32;2.83;;;;;;;21.05;44.46;99298.75;5016776;28;20033;-48
2022/05/21 02:03:24;;;;;;;6.35;2.58;;;;;;;20.95;44.78;99300.25;5034760;28;20021;-48
2022/05/21 02:05:51;;;;;;;8.43;2.80;;;;;;;20.87;44.98;99300.69;5016721;28;20107;-47
2022/05/21 02:08:18;;;;;;;4.30;2.40;;;;;;;20.79;45.28;99308.38;5034487;28;20068;-47
2022/05/21 02:10:46;;;;;;;7.90;2.50;;;;;;;20.68;45.71;99307.44;5034442;28;20483;-48
2022/05/21 02:13:14;;;;;;;5.82;2.58;;;;;;;20.61;45.76;99314.84;5016469;28;20014;-47
2022/05/21 02:15:41;;;;;;;11.65;3.03;;;;;;;20.57;46.00;99306.50;5016903;28;20045;-48
2022/05/21 02:18:06;;;;;;;6.55;2.70;;;;;;;20.52;46.37;99309.09;5034077;28;20129;-48
2022/05/21 02:20:32;;;;;;;11.50;3.00;;;;;;;20.48;46.66;99305.34;5016557;28;20113;-47
2022/05/21 02:22:58;;;;;;;6.43;2.42;;;;;;;20.45;46.78;99317.31;5016391;28;20519;-47
2022/05/21 02:25:24;;;;;;;11.95;6.03;;;;;;;20.42;46.99;99309.00;5034356;28;20017;-46
2022/05/21 02:27:50;;;;;;;8.20;3.40;;;;;;;20.38;47.16;99310.56;5016308;28;20037;-48
2022/05/21 02:30:15;;;;;;;9.38;4.00;;;;;;;20.27;47.48;99312.31;5034247;28;20403;-47
2022/05/21 02:32:41;;;;;;;10.23;4.00;;;;;;;20.12;47.74;99311.06;5033940;28;20032;-47
2022/05/21 02:35:07;;;;;;;6.75;2.70;;;;;;;20.03;48.12;99303.75;5016186;28;20025;-47
2022/05/21 02:40:19;;;;;;;30.98;24.08;;;;;;;19.94;48.81;99303.34;5034166;28;20041;-48
2022/05/21 02:42:45;;;;;;;31.48;21.13;;;;;;;19.87;48.66;99300.88;5016061;28;20087;-47
2022/05/21 02:45:15;;;;;;;1999.90;980.45;;;;;;;19.89;49.20;99297.97;5033678;28;20049;-48
2022/05/21 02:47:41;;;;;;;948.75;489.73;;;;;;;20.02;48.77;99294.97;5033295;28;20445;-48
2022/05/21 02:50:08;;;;;;;482.48;229.65;;;;;;;20.12;49.01;99302.25;5015814;28;20021;-47
2022/05/21 02:52:34;;;;;;;148.77;62.95;;;;;;;20.21;48.63;99298.09;5033616;28;20033;-48
2022/05/21 02:54:59;;;;;;;41.28;15.65;;;;;;;20.18;48.89;99300.44;5032285;28;20088;-48
2022/05/21 02:57:25;;;;;;;39.03;16.33;;;;;;;20.08;49.16;99299.28;5015772;28;20486;-48
2022/05/21 02:59:51;;;;;;;24.67;8.20;;;;;;;20.09;49.41;99300.09;5033539;28;20052;-49
2022/05/21 03:02:18;;;;;;;26.02;11.43;;;;;;;20.04;49.76;99300.00;5033497;28;20435;-49
2022/05/21 03:04:44;;;;;;;31.75;13.68;;;;;;;19.94;49.69;99306.00;5033396;28;20045;-49
2022/05/21 03:07:10;;;;;;;30.95;11.15;;;;;;;19.85;50.26;99297.66;5033284;28;20064;-49
2022/05/21 03:12:20;;;;;;;1069.45;585.45;;;;;;;19.81;50.51;99293.88;5033216;28;20036;-49
2022/05/21 03:14:46;;;;;;;355.63;167.88;;;;;;;19.77;50.61;99292.75;5015462;28;20124;-50
2022/05/21 03:17:12;;;;;;;101.00;38.35;;;;;;;19.74;50.82;99295.91;5032658;28;20084;-49
2022/05/21 03:19:38;;;;;;;56.63;23.52;;;;;;;19.60;50.92;99291.94;5033180;28;20037;-49
2022/05/21 03:22:04;;;;;;;17.73;8.10;;;;;;;19.41;51.56;99294.06;5015388;28;20045;-49
2022/05/21 03:24:31;;;;;;;19.92;7.57;;;;;;;19.30;52.04;99293.91;5033123;28;20394;-49
2022/05/21 03:26:57;;;;;;;10.07;4.50;;;;;;;19.14;52.13;99289.38;5033033;28;20104;-49
2022/05/21 03:29:24;;;;;;;9.27;4.53;;;;;;;19.12;52.28;99291.50;5015158;28;20029;-49
2022/05/21 03:31:50;;;;;;;18.52;5.72;;;;;;;19.25;52.22;99290.34;5032930;28;20414;-49
2022/05/21 03:34:16;;;;;;;15.10;5.75;;;;;;;19.28;52.13;99285.34;5032794;28;20022;-49
2022/05/21 03:36:42;;;;;;;10.45;5.45;;;;;;;19.30;51.87;99290.44;5032880;28;20076;-49
2022/05/21 03:39:08;;;;;;;13.20;4.70;;;;;;;19.20;52.25;99283.09;5032797;28;20053;-49
2022/05/21 03:41:36;;;;;;;10.13;4.47;;;;;;;19.10;52.53;99286.41;5032729;28;20027;-49
2022/05/21 03:44:03;;;;;;;9.80;4.45;;;;;;;19.05;52.66;99288.16;5015319;28;20108;-49
2022/05/21 03:46:29;;;;;;;9.60;4.10;;;;;;;19.02;52.76;99286.00;5032641;28;20032;-49
2022/05/21 03:48:58;;;;;;;8.20;3.47;;;;;;;18.99;52.95;99276.63;5014879;28;20025;-49
2022/05/21 03:51:24;;;;;;;7.80;3.75;;;;;;;18.99;52.71;99281.16;5032553;28;20032;-49
2022/05/21 03:53:49;;;;;;;10.55;3.35;;;;;;;19.04;52.84;99282.03;5032447;28;20021;-49
2022/05/21 03:56:15;;;;;;;7.50;3.60;;;;;;;19.06;52.49;99282.59;5032404;28;20406;-49
2022/05/21 03:58:41;;;;;;;11.23;2.97;;;;;;;19.03;52.62;99287.59;5031642;28;20029;-49
2022/05/21 04:01:06;;;;;;;8.40;3.13;;;;;;;19.04;53.05;99283.91;5032307;28;20032;-49
2022/05/21 04:03:34;;;;;;;4.78;2.85;;;;;;;19.13;52.99;99287.75;5032339;28;20030;-50
2022/05/21 04:06:00;;;;;;;5.53;3.10;;;;;;;19.39;52.61;99285.50;5032257;28;20401;-49
2022/05/21 04:08:26;;;;;;;7.22;3.30;;;;;;;19.43;52.08;99286.63;5032289;28;20029;-49
2022/05/21 04:10:52;;;;;;;8.90;3.33;;;;;;;19.27;52.16;99283.72;5032205;28;20061;-49
2022/05/21 04:13:18;;;;;;;8.35;3.47;;;;;;;19.16;52.75;99290.75;5014349;28;20025;-49
2022/05/21 04:15:45;;;;;;;8.18;3.40;;;;;;;19.30;52.44;99287.78;5014429;28;20025;-49
2022/05/21 04:18:11;;;;;;;7.50;3.85;;;;;;;19.40;52.01;99298.59;5031868;28;20069;-49
2022/05/21 04:20:37;;;;;;;6.57;3.15;;;;;;;19.43;51.93;99291.97;5032049;28;20068;-49
2022/05/21 04:23:03;;;;;;;9.30;3.72;;;;;;;19.35;51.90;99293.16;5032077;28;20029;-49
2022/05/21 04:25:30;;;;;;;7.47;3.53;;;;;;;19.32;52.13;99288.34;5031967;28;20112;-48
2022/05/21 04:27:56;;;;;;;10.38;3.67;;;;;;;19.38;52.41;99295.34;5014164;28;20026;-49
2022/05/21 04:30:28;;;;;;;10.90;3.38;;;;;;;19.44;52.23;99283.72;5031967;28;20026;-49
2022/05/21 04:32:55;;;;;;;8.93;3.28;;;;;;;19.64;51.83;99283.22;5014085;28;20053;-49
2022/05/21 04:35:23;;;;;;;7.25;3.28;;;;;;;20.17;50.68;99275.66;5014288;28;20372;-49
2022/05/21 04:37:49;;;;;;;9.10;3.33;;;;;;;20.81;49.19;99276.91;5031877;28;20498;-49
2022/05/21 04:40:21;;;;;;;9.45;3.78;;;;;;;21.28;47.85;99273.53;5031784;28;20093;-49
2022/05/21 04:42:47;;;;;;;8.13;4.03;;;;;;;21.58;46.99;99272.97;5031882;28;20032;-49
2022/05/21 04:45:15;;;;;;;14.48;4.25;;;;;;;21.77;46.50;99275.22;5031719;28;20025;-49
2022/05/21 04:47:41;;;;;;;6.03;3.20;;;;;;;21.98;45.86;99274.25;5031772;28;20499;-50
2022/05/21 04:50:08;;;;;;;10.60;3.38;;;;;;;22.08;45.84;99282.31;5014017;28;20124;-49
2022/05/21 04:52:36;;;;;;;10.18;3.30;;;;;;;22.12;45.38;99278.03;5013824;28;20124;-49
2022/05/21 04:55:07;;;;;;;8.70;3.28;;;;;;;22.12;45.51;99277.25;5014130;28;20568;-50
2022/05/21 04:57:32;;;;;;;6.80;3.10;;;;;;;22.27;45.13;99273.84;5031746;28;20034;-49
2022/05/21 04:59:58;;;;;;;5.93;3.20;;;;;;;22.56;44.66;99265.34;5031630;28;20532;-48
2022/05/21 05:02:24;;;;;;;8.75;3.72;;;;;;;22.96;44.02;99264.63;5013857;28;20613;-49
2022/05/21 05:04:49;;;;;;;8.43;3.33;;;;;;;23.50;42.79;99265.91;5013820;28;20040;-49
2022/05/21 05:07:19;;;;;;;6.78;3.05;;;;;;;23.97;41.05;99267.44;5031542;28;20426;-50
2022/05/21 05:09:46;;;;;;;6.32;3.10;;;;;;;24.10;40.80;99274.06;5033399;28;20109;-49
2022/05/21 05:12:12;;;;;;;7.35;3.42;;;;;;;24.34;40.60;99266.16;5035428;28;20022;-50
2022/05/21 05:14:41;;;;;;;5.40;3.10;;;;;;;24.73;39.28;99265.44;5017735;28;20057;-50
2022/05/21 05:17:07;;;;;;;6.20;3.67;;;;;;;24.70;39.19;99266.78;5014096;28;20120;-49
2022/05/21 05:19:34;;;;;;;8.45;3.40;;;;;;;25.17;38.89;99259.16;4998024;28;20112;-49
2022/05/21 05:21:59;;;;;;;6.65;3.10;;;;;;;25.52;38.24;99270.69;5015532;28;20029;-48
2022/05/21 05:24:26;;;;;;;6.30;3.75;;;;;;;25.86;37.43;99275.16;5015593;28;20076;-47
2022/05/21 05:26:52;;;;;;;15.57;3.72;;;;;;;26.53;36.29;99274.31;5015545;28;20557;-48
2022/05/21 05:29:17;;;;;;;10.27;3.33;;;;;;;27.00;35.42;99275.22;5014127;28;20042;-48
2022/05/21 05:31:44;;;;;;;9.23;3.33;;;;;;;27.27;35.47;99272.66;5015368;28;20491;-48
2022/05/21 05:34:10;;;;;;;13.15;3.90;;;;;;;27.81;34.48;99267.59;5015388;28;20022;-48
2022/05/21 05:36:35;;;;;;;7.55;3.47;;;;;;;28.54;33.39;99270.44;5015264;28;20040;-50
2022/05/21 05:39:02;;;;;;;11.48;3.53;;;;;;;29.40;31.87;99268.59;5013993;28;20044;-50
2022/05/21 05:41:29;;;;;;;8.02;3.40;;;;;;;30.18;30.70;99271.56;5013968;28;20464;-50
2022/05/21 05:43:56;;;;;;;7.82;3.28;;;;;;;30.16;30.24;99273.81;5015217;28;20096;-50
2022/05/21 05:46:23;;;;;;;9.25;3.97;;;;;;;29.80;30.97;99271.34;5015185;28;20022;-50
2022/05/21 05:48:49;;;;;;;8.23;3.33;;;;;;;29.49;31.32;99264.03;5015165;28;20053;-49
2022/05/21 05:51:19;;;;;;;9.50;3.55;;;;;;;29.28;31.51;99264.59;5015089;28;20056;-50
2022/05/21 05:53:46;;;;;;;6.30;3.28;;;;;;;29.26;31.24;99247.88;5013663;28;20108;-50
2022/05/21 05:56:13;;;;;;;9.05;3.15;;;;;;;29.42;31.26;99250.19;5014966;28;20092;-49
2022/05/21 06:01:23;;;;;;;8.67;3.50;;;;;;;30.71;29.52;99248.06;5015198;28;20041;-49
2022/05/21 06:03:49;;;;;;;9.25;3.45;;;;;;;30.77;29.37;99244.06;5013487;28;20037;-50
2022/05/21 06:06:16;;;;;;;6.65;3.20;;;;;;;30.56;29.44;99240.41;5014755;28;20101;-49
2022/05/21 06:08:43;;;;;;;6.57;3.28;;;;;;;30.82;29.47;99240.38;5014795;28;20030;-49
2022/05/21 06:11:11;;;;;;;8.05;3.20;;;;;;;31.62;28.10;99237.94;5014667;28;20022;-49
2022/05/21 06:13:36;;;;;;;14.13;3.58;;;;;;;32.57;27.51;99256.66;5014572;28;20026;-49
2022/05/21 06:16:03;;;;;;;9.00;3.38;;;;;;;33.67;25.99;99241.75;5014590;28;20022;-50
2022/05/21 06:18:29;;;;;;;6.93;3.50;;;;;;;34.57;24.78;99250.63;5013092;28;20096;-50
2022/05/21 06:20:59;;;;;;;7.22;2.95;;;;;;;35.31;24.21;99259.25;5013593;28;20452;-50
2022/05/21 06:23:25;;;;;;;6.75;2.72;;;;;;;36.22;23.16;99248.50;5014530;28;20079;-50
2022/05/21 06:25:51;;;;;;;5.60;3.00;;;;;;;37.02;21.75;99254.34;5014386;28;20483;-50
2022/05/21 06:28:17;;;;;;;15.27;3.35;;;;;;;37.03;21.69;99254.00;5014404;28;20030;-50
2022/05/21 06:30:45;;;;;;;5.95;2.75;;;;;;;37.12;21.63;99249.06;5014394;28;20501;-48
2022/05/21 06:33:19;;;;;;;11.98;3.20;;;;;;;37.43;21.39;99260.13;5014144;28;20022;-49
2022/05/21 06:35:51;;;;;;;9.25;3.40;;;;;;;37.87;20.97;99254.97;5014311;28;20033;-48
2022/05/21 06:38:17;;;;;;;7.80;3.33;;;;;;;38.11;20.74;99248.28;5014191;28;20030;-48
2022/05/21 06:40:43;;;;;;;8.75;3.13;;;;;;;38.38;20.55;99247.41;5014082;28;20022;-48
2022/05/21 06:43:09;;;;;;;10.77;3.33;;;;;;;38.07;20.87;99252.91;5014092;28;20079;-48
2022/05/21 06:45:35;;;;;;;8.68;2.83;;;;;;;37.82;20.33;99252.53;5013952;28;20026;-48
2022/05/21 06:48:07;;;;;;;7.50;3.50;;;;;;;38.06;20.37;99247.81;5014006;28;20033;-49
2022/05/21 06:50:33;;;;;;;10.95;2.90;;;;;;;38.28;20.22;99246.91;5012642;28;20022;-48
2022/05/21 06:52:59;;;;;;;9.20;2.45;;;;;;;38.40;19.66;99250.56;5013884;28;20365;-48
2022/05/21 06:55:26;;;;;;;11.05;2.78;;;;;;;38.45;19.64;99247.50;5014121;28;20029;-49
2022/05/21 06:57:52;;;;;;;4.88;2.90;;;;;;;38.33;20.17;99241.06;5013772;28;20030;-48
2022/05/21 07:00:21;;;;;;;15.80;2.63;;;;;;;38.46;19.50;99241.63;5013771;28;20088;-49
2022/05/21 07:02:50;;;;;;;8.40;2.53;;;;;;;38.83;19.05;99245.56;5013660;28;20491;-48
2022/05/21 07:08:03;;;;;;;5.18;2.33;;;;;;;39.04;18.75;99237.56;5013955;28;20036;-49
2022/05/21 07:10:29;;;;;;;9.60;2.40;;;;;;;39.00;18.87;99239.50;5013518;28;20060;-50
2022/05/21 07:12:56;;;;;;;4.65;2.40;;;;;;;38.99;18.76;99234.38;5013432;28;20484;-48
2022/05/21 07:15:22;;;;;;;8.07;2.40;;;;;;;39.00;18.78;99235.94;5013537;28;20049;-49
2022/05/21 07:17:48;;;;;;;7.45;2.78;;;;;;;38.87;18.54;99244.44;5023678;28;20046;-49
2022/05/21 07:20:21;;;;;;;9.43;2.60;;;;;;;38.52;19.29;99236.63;5033061;28;20040;-49
2022/05/21 07:22:49;;;;;;;9.95;2.28;;;;;;;38.14;19.28;99235.78;5033483;28;20383;-50
2022/05/21 07:25:19;;;;;;;6.72;2.25;;;;;;;37.95;19.71;99239.41;5033241;28;20029;-50
2022/05/21 07:27:45;;;;;;;4.78;2.28;;;;;;;37.90;19.69;99237.78;5033149;28;20059;-50
2022/05/21 07:30:12;;;;;;;5.20;2.20;;;;;;;37.64;20.34;99230.38;5015115;28;20508;-50
2022/05/21 07:32:41;;;;;;;7.90;2.85;;;;;;;36.89;20.75;99229.91;5014923;28;20032;-50
2022/05/21 07:35:13;;;;;;;6.78;2.50;;;;;;;36.74;20.55;99228.84;5032890;28;20037;-51
2022/05/21 07:37:40;;;;;;;7.20;1.90;;;;;;;37.01;20.96;99223.47;5032882;28;20083;-50
2022/05/21 07:40:07;;;;;;;8.52;2.65;;;;;;;37.32;20.47;99227.91;5032771;28;20017;-49
2022/05/21 07:42:33;;;;;;;6.88;2.53;;;;;;;37.54;20.58;99222.75;5014940;28;20029;-49
2022/05/21 07:44:59;;;;;;;8.75;2.47;;;;;;;37.74;20.39;99224.25;5032679;28;20094;-49
2022/05/21 07:47:25;;;;;;;4.72;2.20;;;;;;;38.15;19.99;99218.16;5032554;28;20120;-49
2022/05/21 07:49:54;;;;;;;6.45;2.28;;;;;;;38.69;19.36;99218.78;5032577;28;20511;-49
2022/05/21 07:52:20;;;;;;;6.63;2.10;;;;;;;38.89;18.50;99213.88;5032459;28;20032;-49
2022/05/21 07:54:46;;;;;;;7.03;2.20;;;;;;;39.19;18.76;99211.00;5032526;28;20421;-50
2022/05/21 07:57:12;;;;;;;5.22;2.50;;;;;;;39.68;18.29;99218.06;5032473;28;20021;-50
2022/05/21 07:59:38;;;;;;;6.20;2.40;;;;;;;39.71;18.16;99216.50;5014657;28;20033;-49
2022/05/21 08:02:11;;;;;;;5.43;2.28;;;;;;;39.96;18.06;99216.63;5032255;28;20046;-50
2022/05/21 08:04:38;;;;;;;7.43;2.05;;;;;;;40.64;17.18;99205.88;5032286;28;20075;-49
2022/05/21 08:07:04;;;;;;;7.95;2.08;;;;;;;41.10;17.02;99204.38;5014522;28;20048;-50
2022/05/21 08:09:30;;;;;;;12.18;2.97;;;;;;;41.61;16.56;99199.63;5014473;28;20025;-49
2022/05/21 08:11:56;;;;;;;5.85;2.22;;;;;;;41.89;16.30;99198.75;5014432;28;20422;-49
2022/05/21 08:14:23;;;;;;;7.95;2.33;;;;;;;42.26;15.74;99191.88;5032270;28;20558;-50
2022/05/21 08:16:49;;;;;;;6.43;2.42;;;;;;;42.22;15.85;99191.94;5031893;28;20120;-48
2022/05/21 08:19:17;;;;;;;8.50;2.13;;;;;;;42.27;16.05;99197.00;5030910;28;20091;-51
2022/05/21 08:21:43;;;;;;;5.13;2.40;;;;;;;42.67;15.11;99191.28;5032197;28;20083;-49
2022/05/21 08:26:56;;;;;;;7.53;2.30;;;;;;;42.79;15.38;99187.25;5032391;28;20457;-50
2022/05/21 08:29:28;;;;;;;5.80;1.90;;;;;;;42.85;14.92;99180.09;5032063;28;20014;-49
2022/05/21 08:31:55;;;;;;;8.60;2.55;;;;;;;43.24;14.80;99184.50;5031947;28;20091;-49
2022/05/21 08:34:22;;;;;;;5.28;2.50;;;;;;;43.35;14.56;99174.16;5014736;28;20075;-52
2022/05/21 08:36:48;;;;;;;5.88;2.42;;;;;;;43.38;14.71;99176.09;5031894;28;20059;-52
2022/05/21 08:39:18;;;;;;;5.97;2.40;;;;;;;43.67;14.36;99182.13;5014140;28;20030;-51
2022/05/21 08:41:52;;;;;;;8.57;2.28;;;;;;;43.64;14.86;99168.31;5014047;28;20025;-53
2022/05/21 08:44:42;;;;;;;5.88;2.72;;;;;;;43.64;14.98;99169.09;5031401;28;20124;-52
2022/05/21 08:47:16;;;;;;;7.63;2.67;;;;;;;43.92;14.58;99169.19;5014095;28;20025;-52
2022/05/21 08:49:48;;;;;;;8.95;2.78;;;;;;;43.77;14.63;99161.06;5031688;28;20033;-52
2022/05/21 08:52:23;;;;;;;6.75;3.10;;;;;;;43.48;14.78;99166.88;5031718;28;20087;-52
2022/05/21 08:54:52;;;;;;;5.95;2.50;;;;;;;43.57;14.81;99157.31;5031779;28;20040;-53
2022/05/21 08:57:25;;;;;;;8.95;2.58;;;;;;;43.88;14.66;99166.47;5013938;28;20033;-51
2022/05/21 09:00:03;;;;;;;5.30;2.90;;;;;;;44.39;14.33;99158.28;5013895;28;20083;-51
2022/05/21 09:02:35;;;;;;;10.20;2.63;;;;;;;44.56;14.50;99153.69;5013912;28;20041;-53
2022/05/21 09:05:03;;;;;;;14.20;2.78;;;;;;;44.51;14.51;99154.16;5031574;28;20021;-51
2022/05/21 09:07:48;;;;;;;8.52;2.70;;;;;;;44.60;14.29;99146.13;5013831;28;20487;-51
2022/05/21 09:10:51;;;;;;;7.20;2.83;;;;;;;45.12;13.93;99140.09;5031517;28;20045;-51
2022/05/21 09:13:42;;;;;;;11.15;2.92;;;;;;;45.31;14.25;99140.56;5013746;28;20124;-52
2022/05/21 09:18:59;;;;;;;9.60;3.10;;;;;;;44.94;14.42;99134.09;5031464;28;20122;-52
2022/05/21 09:21:28;;;;;;;12.27;3.42;;;;;;;44.70;14.44;99130.53;5031460;28;20013;-52
2022/05/21 09:24:00;;;;;;;9.43;2.85;;;;;;;44.77;14.16;99130.41;5031287;28;20075;-51
2022/05/21 09:26:43;;;;;;;9.02;2.75;;;;;;;44.68;14.66;99125.41;5031402;28;20068;-53
2022/05/21 09:29:28;;;;;;;5.70;2.90;;;;;;;44.90;14.69;99131.41;5031489;28;20037;-53
2022/05/21 09:31:58;;;;;;;10.00;2.90;;;;;;;44.99;14.63;99120.53;5031330;28;20372;-53
2022/05/21 09:34:31;;;;;;;14.60;3.42;;;;;;;45.25;14.04;99124.38;5031361;28;20021;-51
2022/05/21 09:36:58;;;;;;;8.70;2.88;;;;;;;45.47;14.18;99126.00;5031287;28;20045;-53
2022/05/21 09:39:30;;;;;;;10.38;2.90;;;;;;;45.29;13.92;99118.03;5013609;28;20037;-53
2022/05/21 09:45:23;;;;;;;13.68;3.50;;;;;;;44.93;14.41;99115.91;5017452;28;20091;-52
2022/05/21 09:48:04;;;;;;;11.68;3.00;;;;;;;44.62;14.71;99114.03;5031200;28;20415;-53
2022/05/21 09:50:42;;;;;;;9.80;2.65;;;;;;;44.44;14.60;99105.22;5013393;28;20032;-52
2022/05/21 09:53:26;;;;;;;8.25;3.30;;;;;;;44.41;14.70;99098.53;5031036;28;20368;-52
2022/05/21 09:56:00;;;;;;;7.80;2.90;;;;;;;44.63;14.53;99098.19;5031472;28;20388;-51
2022/05/21 09:58:26;;;;;;;6.95;2.80;;;;;;;44.15;15.16;99105.66;5034737;28;20014;-53
2022/05/21 10:00:57;;;;;;;9.85;3.10;;;;;;;43.93;15.06;99102.41;5034634;28;20047;-53
2022/05/21 10:03:40;;;;;;;7.05;3.13;;;;;;;43.99;14.98;99099.94;5034624;28;20036;-53
2022/05/21 10:06:21;;;;;;;8.55;3.55;;;;;;;44.03;15.10;99107.00;5034620;28;20025;-53
2022/05/21 10:12:04;;;;;;;11.13;3.33;;;;;;;44.10;14.97;99102.59;5034816;28;20086;-53
2022/05/21 10:14:55;;;;;;;8.20;2.92;;;;;;;44.47;15.19;99090.56;5034746;28;20390;-53
2022/05/21 10:17:33;;;;;;;9.35;2.67;;;;;;;44.64;14.88;99086.69;5034230;28;20104;-52
2022/05/21 10:20:04;;;;;;;9.05;3.08;;;;;;;44.54;14.72;99084.13;5016588;28;20099;-53
2022/05/21 10:22:30;;;;;;;6.95;2.70;;;;;;;44.18;15.17;99084.66;5034396;28;20033;-53
2022/05/21 10:25:09;;;;;;;7.07;2.55;;;;;;;44.40;14.57;99074.81;5034259;28;20028;-53
2022/05/21 10:27:41;;;;;;;12.65;3.28;;;;;;;44.50;14.69;99078.66;5034175;28;20025;-53
2022/05/21 10:30:16;;;;;;;5.07;2.53;;;;;;;44.72;14.17;99076.28;5034226;28;20057;-52
2022/05/21 10:33:10;;;;;;;8.77;2.80;;;;;;;44.98;13.79;99082.97;5034093;28;20104;-54
2022/05/21 10:36:12;;;;;;;11.60;3.00;;;;;;;44.55;14.32;99080.91;5016299;28;20025;-53
2022/05/21 10:38:48;;;;;;;10.75;2.92;;;;;;;44.17;14.44;99078.38;5034014;28;20116;-53
2022/05/21 10:41:41;;;;;;;10.02;2.85;;;;;;;44.08;14.26;99075.34;5034014;28;20025;-52
2022/05/21 10:44:13;;;;;;;7.90;2.90;;;;;;;44.27;14.14;99076.59;5033985;28;20422;-53
2022/05/21 10:46:47;;;;;;;8.48;3.22;;;;;;;44.42;14.27;99079.94;5016044;28;20034;-53
2022/05/21 10:49:23;;;;;;;7.55;2.53;;;;;;;44.03;14.26;99073.00;5033791;28;20407;-53
2022/05/21 10:52:23;;;;;;;10.82;3.03;;;;;;;43.62;14.88;99076.72;5033780;28;20022;-53
2022/05/21 10:55:22;;;;;;;13.05;2.83;;;;;;;43.82;14.88;99074.09;5033742;28;20025;-53
2022/05/21 10:58:02;;;;;;;9.45;2.85;;;;;;;43.86;14.79;99064.53;5013354;28;20041;-52
2022/05/21 11:00:50;;;;;;;9.82;3.28;;;;;;;43.85;14.99;99071.28;5033627;28;20022;-52
2022/05/21 11:03:38;;;;;;;10.10;3.15;;;;;;;43.71;14.92;99063.19;5015779;28;20061;-53
2022/05/21 11:06:42;;;;;;;9.88;2.90;;;;;;;43.91;14.95;99068.03;5033501;28;20037;-52
2022/05/21 11:09:33;;;;;;;12.20;3.03;;;;;;;44.00;14.58;99066.31;5022608;28;20038;-53
2022/05/21 11:12:04;;;;;;;11.68;3.28;;;;;;;43.44;15.28;99054.81;5033344;28;20442;-53
2022/05/21 11:14:42;;;;;;;8.77;2.70;;;;;;;42.86;15.50;99062.94;5033370;28;20021;-52
2022/05/21 11:17:24;;;;;;;13.88;2.95;;;;;;;43.09;15.55;99054.81;5032989;28;20050;-52
2022/05/21 11:20:00;;;;;;;7.83;2.70;;;;;;;43.39;15.16;99053.31;5033298;28;20029;-52
2022/05/21 11:22:48;;;;;;;7.95;2.60;;;;;;;43.57;15.30;99052.28;5033143;28;20040;-52
2022/05/21 11:25:21;;;;;;;6.30;2.78;;;;;;;43.82;15.25;99051.97;5017935;28;20426;-51
2022/05/21 11:28:05;;;;;;;11.77;3.15;;;;;;;43.65;15.36;99042.72;5033117;28;20068;-52
2022/05/21 11:30:31;;;;;;;6.70;2.90;;;;;;;43.71;14.98;99040.28;5015237;28;20040;-52
2022/05/21 11:38:39;;;;;;;7.53;2.67;;;;;;;44.09;14.76;99027.09;5033181;28;20044;-51
2022/05/21 11:41:24;;;;;;;15.50;3.08;;;;;;;43.86;15.17;99027.81;5032823;28;20034;-51
2022/05/21 11:47:17;;;;;;;9.88;3.15;;;;;;;43.87;15.06;99027.41;5032962;28;20482;-51
2022/05/21 11:50:04;;;;;;;9.70;2.95;;;;;;;43.75;15.24;99025.22;5002211;28;20091;-52
2022/05/21 11:52:32;;;;;;;7.88;2.83;;;;;;;43.88;15.23;99022.66;5032449;28;20051;-51
2022/05/21 11:54:59;;;;;;;16.13;3.92;;;;;;;43.92;14.97;99028.13;5032526;28;20022;-52
2022/05/21 11:57:33;;;;;;;6.20;2.85;;;;;;;43.65;15.29;99024.13;5032495;28;20124;-52
2022/05/21 12:00:19;;;;;;;6.05;2.60;;;;;;;43.28;15.47;99022.25;5032473;28;20044;-51
2022/05/21 12:02:54;;;;;;;9.80;3.03;;;;;;;43.25;15.27;99020.31;5032412;28;20029;-52
2022/05/21 12:05:35;;;;;;;7.70;2.75;;;;;;;43.12;15.56;99019.28;5032403;28;20029;-52
2022/05/21 12:08:22;;;;;;;7.63;2.65;;;;;;;42.66;15.87;99013.03;5032275;28;20030;-52
2022/05/21 12:11:34;;;;;;;11.85;3.35;;;;;;;42.53;16.29;99014.75;5014606;28;20120;-51
2022/05/21 12:14:20;;;;;;;5.90;3.13;;;;;;;42.47;16.44;99006.91;4999401;28;20038;-52
2022/05/21 12:16:50;;;;;;;7.18;3.00;;;;;;;42.52;16.22;98999.38;5031876;28;20049;-52
2022/05/21 12:19:44;;;;;;;9.07;2.40;;;;;;;42.04;16.60;99001.72;5031544;28;20096;-53
2022/05/21 12:22:10;;;;;;;10.15;2.83;;;;;;;41.50;17.18;99001.22;5032037;28;20102;-51
2022/05/21 12:24:40;;;;;;;6.55;2.67;;;;;;;41.59;17.31;99003.53;5014541;28;20101;-52